Weather observations for the past three days for
Madison, Madison-Lac Qui Parle County Airport
Imperial (Metric)
Date Time (cdt) Wind (mph) Vis. (mi.) Weather Sky Cond. Temperature (ºF) Relative Humidity Wind Chill (°F) Heat Index (°F) Pressure Precipitation (in)
Air Dwpt 6 hour altimeter (in) sea level (mb) 1 hr 3 hr 6 hr
Max. Min.
04 12:55 NW 21 G 30 10.00 Fair and Breezy CLR 55.4 26.6 33% 29.65 0.0
04 12:35 NW 21 G 28 10.00 Fair and Breezy CLR 55.4 26.6 33% 29.65 0.0
04 12:15 NW 23 G 35 10.00 Fair and Breezy CLR 53.6 26.6 35% 29.64 0.0
04 11:55 N 30 G 35 10.00 Fair and Windy CLR 53.6 28.4 38% 29.65 0.0
04 11:35 NW 24 G 31 10.00 Fair and Breezy CLR 53.6 28.4 38% 29.63 0.0
04 11:15 NW 25 G 31 10.00 Fair and Breezy CLR 53.6 28.4 38% 29.64 0.0
04 10:55 NW 29 G 35 10.00 Fair and Windy CLR 53.6 26.6 35% 29.63 0.0
04 10:35 NW 28 G 36 10.00 Fair and Windy CLR 55.4 24.8 31% 29.62 0.0
04 10:15 NW 29 G 35 10.00 Fair and Windy CLR 55.4 26.6 33% 29.6 0.0
04 09:55 NW 23 G 32 10.00 Fair and Breezy CLR 55.4 33.8 44% 29.6 0.0
04 09:35 NW 26 G 32 10.00 Fair and Windy CLR 55.4 35.6 47% 29.59 0.0
04 09:15 NW 22 G 32 10.00 Fair and Breezy CLR 55.4 35.6 47% 29.58 0.0
04 08:55 NW 24 G 30 10.00 Fair and Breezy CLR 55.4 35.6 47% 29.58 0.0
04 08:35 NW 16 10.00 Fair CLR 53.6 35.6 51% 29.58 0.0
04 08:15 NW 12 G 17 10.00 Fair CLR 51.8 35.6 54% 29.57 0.0
04 07:55 NW 12 10.00 Fair CLR 51.8 35.6 54% 29.57 0.0
04 07:35 NW 13 10.00 Fair CLR 50 35.6 58% 46 29.57 0.0
04 07:15 W 10 10.00 Fair CLR 50 35.6 58% 46 29.56 0.0
04 06:55 NW 9 10.00 Fair CLR 48.2 35.6 62% 45 29.55 0.0
04 06:35 W 8 10.00 Fair CLR 48.2 35.6 62% 45 29.54 0.0
04 06:15 NW 9 10.00 Fair CLR 48.2 35.6 62% 45 29.53 0.0
04 05:55 NW 12 10.00 Fair CLR 51.8 35.6 54% 29.53 0.0
04 05:35 NW 16 G 20 10.00 Fair CLR 51.8 35.6 54% 29.52 0.0
04 05:15 NW 16 G 31 10.00 Fair CLR 55.4 35.6 47% 29.5 0.0
04 04:55 W 20 G 26 10.00 Fair CLR 57.2 33.8 41% 29.49 0.0
04 04:35 W 20 G 28 10.00 Fair CLR 57.2 32 39% 29.49 0.0
04 04:15 W 23 G 29 10.00 Fair and Breezy CLR 60.8 30.2 31% 29.47 0.0
04 03:55 SW 21 G 32 10.00 Fair and Breezy CLR 60.8 26.6 27% 29.44 0.0
04 03:35 SW 23 G 29 10.00 Fair and Breezy CLR 60.8 26.6 27% 29.44 0.0
04 03:15 SW 21 G 29 10.00 Fair and Breezy CLR 60.8 26.6 27% 29.46 0.0
04 02:55 SW 23 G 29 10.00 Fair and Breezy CLR 59 26.6 29% 29.47 0.0
04 02:35 SW 20 G 24 10.00 Fair CLR 59 28.4 31% 29.47 0.0
04 02:15 SW 20 G 25 10.00 Fair CLR 59 26.6 29% 29.49 0.0
04 01:55 SW 20 10.00 Fair CLR 59 26.6 29% 29.5 0.0
04 01:35 SW 15 10.00 Fair CLR 57.2 28.4 33% 29.51 0.0
04 01:15 SW 13 10.00 Fair CLR 55.4 26.6 33% 29.52 0.0
04 00:55 SW 13 10.00 Fair CLR 55.4 26.6 33% 29.54 0.0
04 00:35 SW 13 10.00 Fair CLR 53.6 24.8 33% 29.55 0.0
04 00:15 SW 10 10.00 Fair CLR 53.6 26.6 35% 29.57 0.0
03 23:55 SW 12 10.00 Fair CLR 51.8 26.6 38% 29.58 0.0
03 23:35 SW 12 10.00 Fair CLR 53.6 26.6 35% 29.59 0.0
03 23:15 SW 9 10.00 Fair CLR 53.6 24.8 33% 29.6 0.0
03 22:55 SW 9 10.00 Fair CLR 53.6 26.6 35% 29.61 0.0
03 22:35 SW 9 10.00 Fair CLR 55.4 26.6 33% 29.62 0.0
03 22:15 SW 10 10.00 Fair CLR 55.4 24.8 31% 29.63 0.0
03 21:55 SW 10 10.00 Fair CLR 55.4 26.6 33% 29.65 0.0
03 21:35 SW 7 10.00 Fair CLR 55.4 26.6 33% 29.66 0.0
03 21:15 SW 6 10.00 Fair CLR 57.2 26.6 31% 29.66 0.0
03 20:55 SW 7 10.00 Fair CLR 60.8 23 23% 29.66 0.0
03 20:35 W 6 10.00 Fair CLR 62.6 21.2 20% 29.67 0.0
03 20:15 W 7 10.00 Fair CLR 62.6 21.2 20% 29.67 0.0
03 19:55 W 9 10.00 Fair CLR 66.2 19.4 17% 29.68 0.0
03 19:35 W 14 G 18 10.00 Fair CLR 68 17.6 14% 29.68 0.0
03 19:15 W 12 10.00 Fair CLR 69.8 17.6 13% 29.69 0.0
03 18:55 W 9 10.00 Fair CLR 69.8 17.6 13% 29.69 0.0
03 18:35 W 12 G 16 10.00 Fair CLR 69.8 17.6 13% 29.69 0.0
03 18:15 W 12 G 20 10.00 Fair CLR 69.8 17.6 13% 29.7 0.0
03 17:55 W 15 G 21 10.00 Fair CLR 69.8 15.8 12% 29.71 0.0
03 17:35 W 13 G 20 10.00 Fair CLR 69.8 17.6 13% 29.72 0.0
03 17:15 W 15 G 20 10.00 Fair CLR 69.8 19.4 15% 29.72 0.0
03 16:55 NW 13 G 18 10.00 Fair CLR 69.8 21.2 16% 29.73 0.0
03 16:35 W 13 G 20 10.00 Fair CLR 69.8 21.2 16% 29.74 0.0
03 16:15 W 13 G 18 10.00 Fair CLR 69.8 23 17% 29.75 0.0
03 15:55 W 12 G 22 10.00 Fair CLR 69.8 21.2 16% 29.75 0.0
03 15:35 NW 10 G 18 10.00 Fair CLR 69.8 26.6 20% 29.76 0.0
03 15:15 NW 13 G 16 10.00 Fair CLR 68 28.4 23% 29.78 0.0
03 14:55 NW 15 G 22 10.00 Fair CLR 66.2 26.6 22% 29.79 0.0
03 14:35 NW 14 G 18 10.00 Fair CLR 66.2 26.6 22% 29.79 0.0
03 14:15 N 9 G 22 10.00 Fair CLR 66.2 26.6 22% 29.81 0.0
03 13:55 NW 15 G 18 10.00 Fair CLR 66.2 26.6 22% 29.82 0.0
03 13:35 NW 9 G 17 10.00 Fair CLR 64.4 28.4 26% 29.83 0.0
03 13:15 NW 14 G 22 10.00 Fair CLR 64.4 26.6 24% 29.84 0.0
03 12:55 N 10 G 18 10.00 Fair CLR 64.4 28.4 26% 29.84 0.0
03 12:35 N 12 G 17 10.00 Fair CLR 62.6 30.2 30% 29.85 0.0
03 12:15 NW 13 10.00 Fair CLR 62.6 30.2 30% 29.85 0.0
03 11:55 N 10 10.00 Fair CLR 62.6 32 32% 29.86 0.0
03 11:35 NW 13 G 18 10.00 Fair CLR 60.8 32 34% 29.86 0.0
03 11:15 N 15 G 18 10.00 Fair CLR 60.8 32 34% 29.86 0.0
03 10:55 NW 13 G 18 10.00 Fair CLR 60.8 33.8 36% 29.86 0.0
03 10:35 NW 16 10.00 Fair CLR 59 33.8 39% 29.86 0.0
03 10:15 NW 17 10.00 Fair CLR 57.2 33.8 41% 29.86 0.0
03 09:55 NW 13 10.00 Fair CLR 55.4 35.6 47% 29.86 0.0
03 09:35 NW 15 10.00 Fair CLR 55.4 33.8 44% 29.86 0.0
03 09:15 NW 15 10.00 Fair CLR 53.6 35.6 51% 29.86 0.0
03 08:55 NW 17 10.00 Fair CLR 51.8 35.6 54% 29.86 0.0
03 08:35 NW 17 G 22 10.00 Fair CLR 51.8 35.6 54% 29.86 0.0
03 08:15 NW 16 G 22 10.00 Fair CLR 48.2 35.6 62% 43 29.85 0.0
03 07:55 NW 15 10.00 Fair CLR 48.2 37.4 66% 43 29.85 0.0
03 07:35 NW 13 10.00 Fair CLR 46.4 35.6 66% 41 29.84 0.0
03 07:15 NW 9 10.00 Fair CLR 44.6 35.6 71% 40 29.83 0.0
03 06:55 Calm 10.00 Fair CLR 44.6 35.6 71% 29.82 0.0
03 06:35 NW 10 10.00 Fair CLR 44.6 35.6 71% 40 29.81 0.0
03 06:15 NW 14 10.00 Fair CLR 44.6 35.6 71% 39 29.81 0.0
03 05:55 NW 13 10.00 Fair CLR 44.6 35.6 71% 39 29.8 0.0
03 05:35 NW 12 10.00 Fair CLR 44.6 35.6 71% 39 29.79 0.0
03 05:15 NW 14 10.00 Fair CLR 46.4 35.6 66% 41 29.79 0.0
03 04:55 NW 10 10.00 Fair CLR 44.6 35.6 71% 40 29.79 0.0
03 04:35 NW 12 10.00 Fair CLR 46.4 35.6 66% 42 29.78 0.0
03 04:15 NW 12 10.00 Fair CLR 46.4 35.6 66% 42 29.77 0.0
03 03:55 NW 10 10.00 Fair CLR 46.4 35.6 66% 42 29.77 0.0
03 03:35 NW 13 10.00 Fair CLR 48.2 35.6 62% 43 29.77 0.0
03 03:15 NW 10 10.00 Fair CLR 48.2 35.6 62% 44 29.76 0.0
03 02:55 NW 13 10.00 Fair CLR 50 35.6 58% 46 29.76 0.0
03 02:35 NW 15 10.00 Fair CLR 51.8 33.8 50% 29.75 0.0
03 02:15 NW 13 10.00 Fair CLR 50 35.6 58% 46 29.75 0.0
03 01:55 NW 13 10.00 Fair CLR 51.8 35.6 54% 29.75 0.0
03 01:35 NW 13 G 20 10.00 Fair CLR 53.6 35.6 51% 29.74 0.0
03 01:15 W 15 10.00 Fair CLR 53.6 35.6 51% 29.73 0.0
03 00:55 W 10 10.00 Fair CLR 53.6 35.6 51% 29.73 0.0
03 00:35 W 8 10.00 Partly Cloudy SCT100 55.4 33.8 44% 29.72 0.0
03 00:15 W 8 10.00 Mostly Cloudy BKN100 57.2 33.8 41% 29.73 0.0
02 23:55 W 8 10.00 Mostly Cloudy BKN100 55.4 33.8 44% 29.73 0.0
02 23:35 W 6 10.00 Partly Cloudy SCT110 57.2 32 39% 29.73 0.0
02 23:15 Calm 10.00 Partly Cloudy SCT110 59 33.8 39% 29.73 0.0
02 22:55 Calm 10.00 Mostly Cloudy BKN100 59 35.6 42% 29.73 0.0
02 22:35 S 3 10.00 Mostly Cloudy BKN090 57.2 39.2 51% 29.73 0.0
02 22:15 S 7 10.00 Mostly Cloudy BKN090 59 35.6 42% 29.74 0.0
02 21:55 S 7 10.00 Light Rain BKN100 60.8 33.8 36% 29.75 0.0
02 21:35 SW 3 10.00 Mostly Cloudy SCT075 BKN100 62.6 28.4 27% 29.76 0.0
02 21:15 SW 12 10.00 Mostly Cloudy BKN100 62.6 26.6 25% 29.75 0.0
02 20:55 SW 5 10.00 Mostly Cloudy BKN100 62.6 23 22% 29.77 0.0
02 20:35 S 10 10.00 Partly Cloudy SCT100 62.6 23 22% 29.78 0.0
02 20:15 S 9 10.00 Partly Cloudy SCT100 62.6 21.2 20% 29.77 0.0
02 19:55 SW 8 10.00 Mostly Cloudy BKN100 64.4 21.2 19% 29.77 0.0
02 19:35 SW 9 10.00 Partly Cloudy SCT110 66.2 17.6 15% 29.78 0.0
02 19:15 SW 12 10.00 Fair CLR 66.2 17.6 15% 29.79 0.0
02 18:55 SW 16 G 20 10.00 Fair CLR 66.2 15.8 14% 29.8 0.0
02 18:35 SW 16 G 21 10.00 Fair CLR 68 17.6 14% 29.82 0.0
02 18:15 SW 16 10.00 Fair CLR 68 17.6 14% 29.83 0.0
02 17:55 SW 15 10.00 Fair CLR 68 17.6 14% 29.84 0.0
02 17:35 SW 17 G 23 10.00 Fair CLR 68 17.6 14% 29.85 0.0
02 17:15 SW 18 G 28 10.00 Fair CLR 68 15.8 13% 29.86 0.0
02 16:55 W 14 G 21 10.00 Fair CLR 66.2 15.8 14% 29.86 0.0
02 16:35 SW 16 G 29 10.00 Fair CLR 69.8 19.4 15% 29.87 0.0
02 16:15 SW 14 G 21 10.00 Partly Cloudy SCT090 66.2 19.4 17% 29.89 0.0
02 15:55 SW 17 G 25 10.00 Partly Cloudy SCT090 SCT110 66.2 21.2 18% 29.9 0.0
02 15:35 SW 23 G 28 10.00 Partly Cloudy and Breezy SCT110 66.2 19.4 17% 29.9 0.0
02 15:15 SW 20 G 26 10.00 Fair CLR 66.2 19.4 17% 29.91 0.0
02 14:55 W 13 G 23 10.00 Fair CLR 68 21.2 17% 29.92 0.0
02 14:35 W 17 G 22 10.00 Fair CLR 66.2 21.2 18% 29.93 0.0
02 14:15 W 18 G 22 10.00 Fair CLR 66.2 21.2 18% 29.94 0.0
02 13:55 W 14 G 24 10.00 Fair CLR 66.2 23 19% 29.95 0.0
02 13:35 W 17 G 30 10.00 Fair CLR 66.2 21.2 18% 29.96 0.0
02 13:15 W 20 G 26 10.00 Fair CLR 66.2 21.2 18% 29.96 0.0
02 12:55 W 17 G 25 10.00 Fair CLR 66.2 21.2 18% 29.97 0.0
02 12:35 W 20 G 24 10.00 Fair CLR 66.2 23 19% 29.98 0.0
02 12:15 W 20 G 25 10.00 Fair CLR 64.4 24.8 22% 29.99 0.0
02 11:55 W 21 G 25 10.00 Fair and Breezy CLR 64.4 24.8 22% 30 0.0
02 11:35 W 13 G 22 10.00 Fair CLR 62.6 26.6 25% 30.01 0.0
02 11:15 W 15 G 22 10.00 Fair CLR 62.6 26.6 25% 30.02 0.0
02 10:55 W 12 G 21 10.00 Fair CLR 60.8 26.6 27% 30.02 0.0
02 10:35 SW 14 10.00 Fair CLR 59 24.8 27% 30.03 0.0
02 10:15 SW 12 10.00 Fair CLR 57.2 26.6 31% 30.04 0.0
02 09:55 SW 10 10.00 Fair CLR 57.2 24.8 29% 30.05 0.0
02 09:35 SW 10 10.00 Fair CLR 53.6 26.6 35% 30.05 0.0
02 09:15 SW 13 10.00 Fair CLR 53.6 24.8 33% 30.06 0.0
02 08:55 W 12 10.00 Fair CLR 50 26.6 40% 46 30.07 0.0
02 08:35 SW 12 10.00 Fair CLR 48.2 26.6 43% 44 30.07 0.0
02 08:15 SW 7 10.00 Fair CLR 44.6 28.4 53% 41 30.07 0.0
02 07:55 SW 8 10.00 Fair CLR 42.8 26.6 53% 39 30.08 0.0
02 07:35 SW 5 10.00 Fair CLR 37.4 28.4 70% 34 30.08 0.0
02 07:15 SW 6 10.00 Fair CLR 33.8 26.6 75% 29 30.08 0.0
02 06:55 S 5 10.00 Fair CLR 33.8 24.8 70% 30 30.09 0.0
02 06:35 S 5 10.00 Fair CLR 33.8 24.8 70% 30 30.09 0.0
02 06:15 SW 6 10.00 Fair CLR 33.8 24.8 70% 29 30.09 0.0
02 05:55 SW 6 10.00 Partly Cloudy SCT095 33.8 24.8 70% 29 30.09 0.0
02 05:35 SW 7 10.00 Partly Cloudy SCT095 33.8 24.8 70% 28 30.1 0.0
02 05:15 SW 6 10.00 Fair CLR 33.8 24.8 70% 29 30.1 0.0
02 04:55 SW 5 10.00 Fair CLR 33.8 26.6 75% 30 30.1 0.0
02 04:35 SW 5 10.00 Fair CLR 33.8 24.8 70% 30 30.11 0.0
02 04:15 SW 6 10.00 Fair CLR 33.8 24.8 70% 29 30.11 0.0
02 03:55 SW 7 10.00 Fair CLR 33.8 24.8 70% 28 30.11 0.0
02 03:35 SW 7 10.00 Fair CLR 33.8 24.8 70% 28 30.11 0.0
02 03:15 SW 7 10.00 Fair CLR 33.8 24.8 70% 28 30.11 0.0
02 02:55 SW 5 10.00 Fair CLR 33.8 26.6 75% 30 30.11 0.0
02 02:35 SW 7 10.00 Fair CLR 33.8 26.6 75% 28 30.11 0.0
02 02:15 SW 6 10.00 Fair CLR 35.6 26.6 70% 31 30.12 0.0
02 01:55 SW 3 10.00 Fair CLR 33.8 26.6 75% 30.12 0.0
02 01:35 SW 6 10.00 Fair CLR 35.6 26.6 70% 31 30.12 0.0
02 01:15 SW 6 10.00 Fair CLR 35.6 26.6 70% 31 30.13 0.0
02 00:55 SW 5 10.00 Fair CLR 33.8 26.6 75% 30 30.13 0.0
02 00:35 SW 3 10.00 Fair CLR 33.8 26.6 75% 30.13 0.0
02 00:15 W 5 10.00 Fair CLR 37.4 28.4 70% 34 30.13 0.0
01 23:55 Calm 10.00 Fair CLR 37.4 28.4 70% 30.13 0.0
01 23:35 W 3 10.00 Fair CLR 35.6 26.6 70% 30.13 0.0
01 23:15 W 3 10.00 Fair CLR 39.2 26.6 61% 30.14 0.0
01 22:55 Calm 10.00 Fair CLR 39.2 28.4 65% 30.14 0.0
01 22:35 Calm 10.00 Fair CLR 42.8 24.8 49% 30.14 0.0
01 22:15 Calm 10.00 Fair CLR 44.6 24.8 46% 30.13 0.0
01 21:55 Calm 10.00 Fair CLR 42.8 24.8 49% 30.13 0.0
01 21:35 NW 3 10.00 Fair CLR 44.6 24.8 46% 30.13 0.0
01 21:15 Calm 10.00 Fair CLR 42.8 24.8 49% 30.13 0.0
01 20:55 NW 3 10.00 Fair CLR 46.4 21.2 37% 30.12 0.0
01 20:35 NW 5 10.00 Fair CLR 46.4 23 40% 45 30.12 0.0
01 20:15 NW 6 10.00 Fair CLR 46.4 24.8 43% 44 30.12 0.0
01 19:55 N 6 10.00 Fair CLR 48.2 23 37% 46 30.12 0.0
01 19:35 N 6 10.00 Fair CLR 48.2 23 37% 46 30.11 0.0
01 19:15 N 10 10.00 Fair CLR 51.8 21.2 30% 30.11 0.0
01 18:55 N 7 10.00 Fair CLR 51.8 17.6 26% 30.11 0.0
01 18:35 N 12 10.00 Fair CLR 51.8 19.4 28% 30.11 0.0
01 18:15 NW 6 10.00 Fair CLR 51.8 19.4 28% 30.11 0.0
01 17:55 N 9 10.00 Fair CLR 51.8 19.4 28% 30.11 0.0
01 17:35 NW 9 10.00 Fair CLR 51.8 19.4 28% 30.11 0.0
01 17:15 N 7 10.00 Partly Cloudy SCT060 51.8 21.2 30% 30.12 0.0
01 16:55 N 12 10.00 Mostly Cloudy BKN060 51.8 21.2 30% 30.11 0.0
01 16:35 N 8 G 26 10.00 Partly Cloudy SCT060 51.8 21.2 30% 30.12 0.0
01 16:15 N 5 G 9 10.00 Partly Cloudy SCT060 50 21.2 32% 49 30.12 0.0
01 15:55 N 7 G 13 10.00 Partly Cloudy SCT060 50 23 35% 48 30.13 0.0
01 15:35 NW 10 10.00 Partly Cloudy SCT060 51.8 24.8 35% 30.13 0.0
01 15:15 N 13 10.00 Partly Cloudy SCT060 50 23 35% 46 30.13 0.0
01 14:55 N 8 G 18 10.00 Partly Cloudy SCT050 48.2 23 37% 45 30.14 0.0
01 14:35 N 10 10.00 Partly Cloudy SCT050 50 23 35% 46 30.14 0.0
01 14:15 N 10 G 16 10.00 Partly Cloudy SCT050 50 24.8 37% 46 30.14 0.0
01 13:55 N 9 10.00 Partly Cloudy SCT050 48.2 24.8 40% 45 30.14 0.0
01 13:35 N 6 G 16 10.00 Mostly Cloudy BKN050 48.2 24.8 40% 46 30.14 0.0
01 13:15 N 3 G 10 10.00 Mostly Cloudy BKN050 46.4 23 40% 30.14 0.0
Date Time (cdt) Wind (mph) Vis. (mi.) Weather Sky Cond. Air Dwpt Max. Min. Relative Humidity Wind Chill (°F) Heat Index (°F) altimeter (in) sea level (mb) 1 hr 3 hr 6 hr
6 hour
Temperature (ºF) Pressure Precipitation (in)